Time;durP1;ratioP1;P1;durP2;ratioP2;P2;SDS_P1;SDS_P2;PMS_P1;PMS_P2;Temp;Humidity;BMP_temperature;BMP_pressure;BME280_temperature;BME280_humidity;BME280_pressure;Samples;Min_cycle;Max_cycle;Signal;HPM_P1;HPM_P2
2023/04/07 00:01:57;;;;;;;2.42;1.42;;;;;;;;;;5091674;28;20024;-74
2023/04/07 00:04:23;;;;;;;2.85;1.65;;;;;;;;;;5091789;28;20015;-75
2023/04/07 00:06:50;;;;;;;1.90;1.67;;;;;;;;;;5109867;28;20024;-75
2023/04/07 00:09:16;;;;;;;3.58;1.45;;;;;;;;;;5091271;28;20049;-75
2023/04/07 00:11:42;;;;;;;4.15;1.50;;;;;;;;;;5091237;28;20031;-75
2023/04/07 00:14:08;;;;;;;2.38;1.75;;;;;;;;;;5109599;28;20027;-75
2023/04/07 00:16:34;;;;;;;2.25;1.58;;;;;;;;;;5109535;28;20426;-76
2023/04/07 00:19:00;;;;;;;1.98;1.70;;;;;;;;;;5091370;28;20023;-75
2023/04/07 00:21:26;;;;;;;3.50;1.65;;;;;;;;;;5091317;28;20042;-74
2023/04/07 00:23:52;;;;;;;1.75;1.15;;;;;;;;;;5109966;28;20023;-75
2023/04/07 00:26:18;;;;;;;1.52;1.30;;;;;;;;;;5109862;28;20016;-75
2023/04/07 00:28:44;;;;;;;7.72;1.50;;;;;;;;;;5109122;28;20032;-75
2023/04/07 00:31:10;;;;;;;1.80;1.58;;;;;;;;;;5110030;28;20026;-75
2023/04/07 00:33:36;;;;;;;1.35;1.00;;;;;;;;;;5115603;28;20049;-75
2023/04/07 00:36:02;;;;;;;1.13;1.02;;;;;;;;;;5116391;28;20512;-74
2023/04/07 00:38:28;;;;;;;1.88;1.55;;;;;;;;;;5116568;28;20089;-74
2023/04/07 00:40:58;;;;;;;4.70;1.42;;;;;;;;;;5116393;28;20541;-75
2023/04/07 00:43:24;;;;;;;2.30;1.52;;;;;;;;;;5116085;28;20451;-75
2023/04/07 00:45:50;;;;;;;9.27;1.30;;;;;;;;;;5116000;28;20043;-75
2023/04/07 00:48:16;;;;;;;2.55;0.98;;;;;;;;;;5114929;28;20365;-75
2023/04/07 00:50:42;;;;;;;1.30;1.20;;;;;;;;;;5114683;28;20026;-75
2023/04/07 00:53:08;;;;;;;4.00;1.20;;;;;;;;;;5114926;28;20047;-75
2023/04/07 00:55:34;;;;;;;2.40;1.25;;;;;;;;;;5096683;28;20016;-75
2023/04/07 00:58:00;;;;;;;3.38;1.40;;;;;;;;;;5114507;28;20115;-74
2023/04/07 01:00:27;;;;;;;1.50;1.25;;;;;;;;;;5095952;28;20032;-75
2023/04/07 01:03:05;;;;;;;1.00;1.00;;;;;;;;;;5114992;28;20108;-75
2023/04/07 01:05:34;;;;;;;1.70;1.20;;;;;;;;;;5116435;28;20215;-75
2023/04/07 01:08:07;;;;;;;2.50;1.35;;;;;;;;;;5115483;28;20031;-74
2023/04/07 01:10:35;;;;;;;2.08;1.30;;;;;;;;;;5114828;28;20491;-75
2023/04/07 01:13:05;;;;;;;4.75;1.30;;;;;;;;;;5097703;28;20118;-76
2023/04/07 01:15:33;;;;;;;1.38;1.27;;;;;;;;;;5115960;28;20088;-74
2023/04/07 01:18:03;;;;;;;1.50;1.40;;;;;;;;;;5116189;28;20491;-75
2023/04/07 01:20:32;;;;;;;1.80;1.70;;;;;;;;;;5116312;28;20027;-74
2023/04/07 01:23:01;;;;;;;2.28;1.42;;;;;;;;;;5116329;28;20023;-75
2023/04/07 01:25:45;;;;;;;1.88;1.05;;;;;;;;;;5116214;28;20051;-75
2023/04/07 01:28:15;;;;;;;1.02;0.95;;;;;;;;;;5116047;28;20112;-75
2023/04/07 01:30:41;;;;;;;1.75;1.40;;;;;;;;;;5116296;28;20439;-74
2023/04/07 01:33:07;;;;;;;3.10;1.17;;;;;;;;;;5116384;28;20023;-75
2023/04/07 01:35:35;;;;;;;1.88;1.08;;;;;;;;;;5097451;28;20069;-74
2023/04/07 01:38:02;;;;;;;2.05;1.10;;;;;;;;;;5115832;28;20519;-75
2023/04/07 01:40:29;;;;;;;1.80;1.40;;;;;;;;;;5097260;28;20171;-75
2023/04/07 01:42:56;;;;;;;1.63;1.52;;;;;;;;;;5115709;28;20024;-75
2023/04/07 01:45:22;;;;;;;1.27;1.17;;;;;;;;;;5111449;28;20463;-75
2023/04/07 01:47:49;;;;;;;1.73;1.35;;;;;;;;;;5112381;28;20031;-75
2023/04/07 01:50:15;;;;;;;1.50;1.15;;;;;;;;;;5112821;28;20020;-75
2023/04/07 01:52:42;;;;;;;3.00;1.23;;;;;;;;;;5112824;28;20028;-75
2023/04/07 01:55:08;;;;;;;1.23;0.93;;;;;;;;;;5112777;28;20483;-76
2023/04/07 01:57:34;;;;;;;1.35;1.25;;;;;;;;;;5112849;28;20028;-75
2023/04/07 02:00:00;;;;;;;1.30;1.20;;;;;;;;;;5112562;28;20027;-75
2023/04/07 02:02:27;;;;;;;2.15;1.17;;;;;;;;;;5112354;28;20019;-75
2023/04/07 02:04:57;;;;;;;2.20;1.25;;;;;;;;;;5112566;28;20051;-75
2023/04/07 02:07:34;;;;;;;1.27;1.08;;;;;;;;;;5112440;28;20043;-74
2023/04/07 02:10:02;;;;;;;2.58;1.10;;;;;;;;;;5112549;28;20034;-74
2023/04/07 02:12:29;;;;;;;2.67;1.35;;;;;;;;;;5112411;28;20031;-75
2023/04/07 02:14:55;;;;;;;0.98;0.98;;;;;;;;;;5112082;28;20020;-75
2023/04/07 02:17:24;;;;;;;1.67;1.58;;;;;;;;;;5112389;28;20066;-74
2023/04/07 02:19:50;;;;;;;1.87;1.77;;;;;;;;;;5093797;28;20502;-75
2023/04/07 02:22:16;;;;;;;1.98;1.40;;;;;;;;;;5112093;28;20484;-75
2023/04/07 02:24:42;;;;;;;1.52;1.42;;;;;;;;;;5112143;28;20507;-75
2023/04/07 02:27:09;;;;;;;1.95;1.17;;;;;;;;;;5112899;28;20055;-75
2023/04/07 02:29:35;;;;;;;2.95;1.73;;;;;;;;;;5112395;28;20391;-75
2023/04/07 02:32:01;;;;;;;2.60;1.50;;;;;;;;;;5118212;28;20024;-75
2023/04/07 02:34:27;;;;;;;1.88;1.73;;;;;;;;;;5113452;28;20099;-75
2023/04/07 02:36:53;;;;;;;2.08;1.60;;;;;;;;;;5111744;28;20098;-74
2023/04/07 02:39:19;;;;;;;1.40;1.30;;;;;;;;;;5093329;28;20028;-75
2023/04/07 02:41:45;;;;;;;2.22;1.50;;;;;;;;;;5112017;28;20027;-74
2023/04/07 02:44:11;;;;;;;1.30;1.20;;;;;;;;;;5093286;28;20038;-74
2023/04/07 02:46:37;;;;;;;2.42;1.90;;;;;;;;;;5112464;28;20094;-75
2023/04/07 02:49:03;;;;;;;3.25;1.40;;;;;;;;;;5112026;28;20376;-75
2023/04/07 02:51:30;;;;;;;2.72;1.40;;;;;;;;;;5112128;28;20065;-75
2023/04/07 02:53:56;;;;;;;5.30;1.48;;;;;;;;;;5112121;28;20426;-74
2023/04/07 02:56:22;;;;;;;1.67;1.50;;;;;;;;;;5112044;28;20483;-74
2023/04/07 02:58:48;;;;;;;1.42;1.20;;;;;;;;;;5094930;28;20032;-73
2023/04/07 03:01:14;;;;;;;1.58;1.48;;;;;;;;;;5111795;28;20016;-74
2023/04/07 03:03:41;;;;;;;2.08;1.08;;;;;;;;;;5111016;28;20034;-74
2023/04/07 03:06:07;;;;;;;3.10;1.85;;;;;;;;;;5110989;28;20016;-74
2023/04/07 03:08:33;;;;;;;1.48;1.38;;;;;;;;;;5092862;28;20127;-74
2023/04/07 03:10:59;;;;;;;1.60;1.42;;;;;;;;;;5110956;28;20467;-74
2023/04/07 03:13:25;;;;;;;1.70;1.60;;;;;;;;;;5110995;28;20456;-75
2023/04/07 03:15:51;;;;;;;1.75;1.33;;;;;;;;;;5092618;28;20074;-74
2023/04/07 03:18:17;;;;;;;1.73;1.10;;;;;;;;;;5110734;28;20047;-76
2023/04/07 03:20:44;;;;;;;2.38;1.42;;;;;;;;;;5110787;28;20023;-75
2023/04/07 03:23:10;;;;;;;1.48;1.38;;;;;;;;;;5111002;28;20532;-74
2023/04/07 03:25:36;;;;;;;1.52;1.35;;;;;;;;;;5111074;28;20047;-74
2023/04/07 03:28:02;;;;;;;2.03;1.35;;;;;;;;;;5110577;28;20075;-74
2023/04/07 03:30:28;;;;;;;1.70;1.60;;;;;;;;;;5094681;28;20032;-74
2023/04/07 03:32:54;;;;;;;1.45;1.35;;;;;;;;;;5094225;28;20027;-74
2023/04/07 03:35:20;;;;;;;1.98;1.85;;;;;;;;;;5111343;28;20377;-74
2023/04/07 03:37:46;;;;;;;2.25;1.67;;;;;;;;;;5093875;28;20055;-74
2023/04/07 03:40:13;;;;;;;3.13;1.55;;;;;;;;;;5110513;28;20055;-74
2023/04/07 03:42:39;;;;;;;1.60;1.45;;;;;;;;;;5112506;28;20101;-74
2023/04/07 03:45:06;;;;;;;3.63;1.27;;;;;;;;;;5111245;28;20232;-74
2023/04/07 03:47:31;;;;;;;1.58;1.48;;;;;;;;;;5110541;28;20580;-75
2023/04/07 03:49:57;;;;;;;1.30;1.20;;;;;;;;;;5110268;28;20024;-74
2023/04/07 03:52:23;;;;;;;2.63;1.17;;;;;;;;;;5110533;28;20028;-74
2023/04/07 03:54:50;;;;;;;5.47;1.30;;;;;;;;;;5111899;28;20019;-75
2023/04/07 03:57:16;;;;;;;3.95;1.33;;;;;;;;;;5113149;28;20027;-74
2023/04/07 03:59:42;;;;;;;1.65;1.55;;;;;;;;;;5111871;28;20016;-75
2023/04/07 04:02:08;;;;;;;1.75;1.15;;;;;;;;;;5092548;28;20031;-73
2023/04/07 04:04:34;;;;;;;1.38;1.10;;;;;;;;;;5110348;28;20031;-74
2023/04/07 04:07:00;;;;;;;1.85;1.40;;;;;;;;;;5109514;28;20034;-73
2023/04/07 04:09:26;;;;;;;3.42;1.42;;;;;;;;;;5110031;28;20118;-74
2023/04/07 04:11:52;;;;;;;1.40;1.30;;;;;;;;;;5092177;28;20015;-74
2023/04/07 04:14:18;;;;;;;3.90;1.92;;;;;;;;;;5094225;28;20031;-74
2023/04/07 04:16:44;;;;;;;1.52;1.15;;;;;;;;;;5093151;28;20046;-75
2023/04/07 04:19:10;;;;;;;2.97;1.23;;;;;;;;;;5111935;28;20023;-75
2023/04/07 04:21:36;;;;;;;2.63;1.23;;;;;;;;;;5092304;28;20050;-75
2023/04/07 04:24:03;;;;;;;2.15;1.30;;;;;;;;;;5110161;28;20027;-74
2023/04/07 04:26:29;;;;;;;1.50;1.40;;;;;;;;;;5109812;28;20077;-75
2023/04/07 04:28:55;;;;;;;1.30;1.20;;;;;;;;;;5109809;28;20102;-75
2023/04/07 04:31:21;;;;;;;2.78;1.65;;;;;;;;;;5109770;28;20461;-74
2023/04/07 04:33:47;;;;;;;1.77;1.58;;;;;;;;;;5109948;28;20028;-74
2023/04/07 04:36:13;;;;;;;1.40;1.30;;;;;;;;;;5091529;28;20019;-74
2023/04/07 04:38:39;;;;;;;0.98;0.98;;;;;;;;;;5111824;28;20024;-74
2023/04/07 04:41:05;;;;;;;1.40;1.30;;;;;;;;;;5091764;28;20398;-74
2023/04/07 04:43:31;;;;;;;2.50;1.40;;;;;;;;;;5091482;28;20031;-74
2023/04/07 04:45:58;;;;;;;1.50;1.40;;;;;;;;;;5111893;28;20076;-74
2023/04/07 04:48:24;;;;;;;1.58;1.48;;;;;;;;;;5111304;28;20032;-74
2023/04/07 04:50:50;;;;;;;2.30;1.98;;;;;;;;;;5109829;28;20023;-74
2023/04/07 04:53:16;;;;;;;2.25;1.95;;;;;;;;;;5109675;28;20023;-74
2023/04/07 04:55:45;;;;;;;3.67;1.73;;;;;;;;;;5110700;28;20100;-74
2023/04/07 04:58:11;;;;;;;;;;;;;;;;;;5110032;28;20046;-74
2023/04/07 05:00:37;;;;;;;4.10;2.50;;;;;;;;;;5109154;28;19920;-74
2023/04/07 05:03:03;;;;;;;5.10;2.33;;;;;;;;;;5109363;28;20038;-74
2023/04/07 05:05:29;;;;;;;3.20;2.38;;;;;;;;;;5090882;28;20027;-74
2023/04/07 05:07:55;;;;;;;3.50;2.67;;;;;;;;;;5090929;28;20138;-74
2023/04/07 05:10:21;;;;;;;4.38;2.40;;;;;;;;;;5109755;28;20020;-74
2023/04/07 05:12:48;;;;;;;3.03;2.40;;;;;;;;;;5093590;28;20023;-74
2023/04/07 05:15:14;;;;;;;4.55;2.60;;;;;;;;;;5112594;28;20055;-74
2023/04/07 05:17:40;;;;;;;3.30;2.70;;;;;;;;;;5112216;28;20043;-74
2023/04/07 05:20:07;;;;;;;4.72;2.67;;;;;;;;;;5114873;28;20024;-74
2023/04/07 05:22:33;;;;;;;3.47;2.47;;;;;;;;;;5097811;28;20019;-74
2023/04/07 05:24:59;;;;;;;4.85;2.58;;;;;;;;;;5116053;28;20035;-73
2023/04/07 05:27:25;;;;;;;3.80;2.92;;;;;;;;;;5097243;28;20032;-74
2023/04/07 05:29:51;;;;;;;5.18;2.83;;;;;;;;;;5116041;28;20042;-74
2023/04/07 05:32:18;;;;;;;7.20;3.03;;;;;;;;;;5097737;28;20030;-74
2023/04/07 05:34:44;;;;;;;3.50;2.72;;;;;;;;;;5113975;28;20027;-74
2023/04/07 05:37:10;;;;;;;4.03;2.72;;;;;;;;;;5094249;28;20353;-74
2023/04/07 05:39:36;;;;;;;3.75;2.97;;;;;;;;;;5113030;28;20027;-74
2023/04/07 05:42:02;;;;;;;5.20;2.40;;;;;;;;;;5112804;28;20031;-74
2023/04/07 05:44:28;;;;;;;5.43;2.72;;;;;;;;;;5093913;28;20310;-74
2023/04/07 05:46:54;;;;;;;6.00;3.58;;;;;;;;;;5094505;28;20114;-75
2023/04/07 05:49:20;;;;;;;5.35;3.33;;;;;;;;;;5095071;28;20035;-73
2023/04/07 05:51:47;;;;;;;4.03;2.63;;;;;;;;;;5113386;28;20016;-74
2023/04/07 05:54:12;;;;;;;4.57;3.38;;;;;;;;;;5113140;28;20059;-74
2023/04/07 05:56:39;;;;;;;3.25;2.65;;;;;;;;;;5112894;28;20055;-74
2023/04/07 05:59:05;;;;;;;5.57;3.42;;;;;;;;;;5094622;28;20030;-74
2023/04/07 06:01:31;;;;;;;4.25;3.30;;;;;;;;;;5094583;28;20114;-74
2023/04/07 06:03:57;;;;;;;6.50;3.60;;;;;;;;;;5113110;28;20111;-74
2023/04/07 06:06:23;;;;;;;7.75;3.22;;;;;;;;;;5113832;28;20015;-74
2023/04/07 06:08:49;;;;;;;3.53;2.47;;;;;;;;;;5113593;28;20036;-74
2023/04/07 06:11:15;;;;;;;4.85;2.70;;;;;;;;;;5112063;28;20051;-72
2023/04/07 06:13:41;;;;;;;4.20;2.50;;;;;;;;;;5093523;28;20108;-74
2023/04/07 06:16:07;;;;;;;3.85;2.35;;;;;;;;;;5093776;28;20016;-75
2023/04/07 06:18:33;;;;;;;3.95;2.78;;;;;;;;;;5093425;28;20214;-75
2023/04/07 06:21:01;;;;;;;2.72;2.38;;;;;;;;;;5111798;28;20101;-75
2023/04/07 06:23:27;;;;;;;3.15;2.45;;;;;;;;;;5111784;28;20465;-75
2023/04/07 06:25:53;;;;;;;0.98;0.98;;;;;;;;;;5111788;28;20102;-75
2023/04/07 06:28:19;;;;;;;1.30;1.20;;;;;;;;;;5111570;28;20134;-75
2023/04/07 06:30:46;;;;;;;0.75;0.75;;;;;;;;;;5092931;28;20023;-74
2023/04/07 06:33:12;;;;;;;1.02;1.00;;;;;;;;;;5093975;28;20028;-74
2023/04/07 06:35:39;;;;;;;1.40;1.30;;;;;;;;;;5090100;28;20534;-74
2023/04/07 06:38:05;;;;;;;1.02;0.90;;;;;;;;;;5089452;28;20149;-74
2023/04/07 06:40:31;;;;;;;0.77;0.77;;;;;;;;;;5072817;28;20042;-75
2023/04/07 06:42:57;;;;;;;0.88;0.88;;;;;;;;;;5089744;28;20145;-75
2023/04/07 06:45:23;;;;;;;1.95;1.02;;;;;;;;;;5093110;28;20103;-74
2023/04/07 06:47:49;;;;;;;0.80;0.80;;;;;;;;;;5111202;28;20483;-75
2023/04/07 06:50:19;;;;;;;0.90;0.85;;;;;;;;;;5092940;28;20024;-75
2023/04/07 06:52:45;;;;;;;2.05;1.15;;;;;;;;;;5111338;28;20024;-75
2023/04/07 06:55:11;;;;;;;0.95;0.93;;;;;;;;;;5093032;28;20036;-75
2023/04/07 06:57:37;;;;;;;4.63;2.00;;;;;;;;;;5112379;28;20045;-75
2023/04/07 07:00:06;;;;;;;2.70;1.40;;;;;;;;;;5112084;28;20028;-76
2023/04/07 07:02:32;;;;;;;0.73;0.73;;;;;;;;;;5092584;28;20052;-74
2023/04/07 07:04:58;;;;;;;1.08;0.93;;;;;;;;;;5087737;28;20488;-76
2023/04/07 07:07:24;;;;;;;1.13;1.10;;;;;;;;;;5087332;28;20055;-74
2023/04/07 07:09:51;;;;;;;3.63;2.90;;;;;;;;;;5069711;28;20125;-74
2023/04/07 07:12:17;;;;;;;2.50;2.30;;;;;;;;;;5069516;28;20485;-74
2023/04/07 07:14:43;;;;;;;2.05;1.92;;;;;;;;;;5070162;28;20116;-75
2023/04/07 07:17:09;;;;;;;0.52;0.52;;;;;;;;;;5089005;28;20044;-75
2023/04/07 07:19:36;;;;;;;0.90;0.90;;;;;;;;;;5089359;28;20084;-74
2023/04/07 07:22:03;;;;;;;0.63;0.50;;;;;;;;;;5070416;28;20061;-75
2023/04/07 07:24:29;;;;;;;0.60;0.60;;;;;;;;;;5088846;28;20016;-75
2023/04/07 07:26:56;;;;;;;0.57;0.50;;;;;;;;;;5090287;28;20028;-75
2023/04/07 07:29:22;;;;;;;0.85;0.40;;;;;;;;;;5070216;28;20047;-74
2023/04/07 07:31:48;;;;;;;0.63;0.40;;;;;;;;;;5079818;28;20047;-75
2023/04/07 07:34:14;;;;;;;0.30;0.30;;;;;;;;;;5091356;28;20169;-75
2023/04/07 07:36:40;;;;;;;0.52;0.25;;;;;;;;;;5089226;28;20133;-75
2023/04/07 07:39:06;;;;;;;0.30;0.30;;;;;;;;;;5089067;28;20062;-74
2023/04/07 07:41:32;;;;;;;0.35;0.35;;;;;;;;;;5088841;28;20267;-75
2023/04/07 07:43:58;;;;;;;0.93;0.57;;;;;;;;;;5088614;28;20042;-74
2023/04/07 07:46:26;;;;;;;0.73;0.50;;;;;;;;;;5070032;28;20036;-75
2023/04/07 07:48:55;;;;;;;1.23;0.30;;;;;;;;;;5089120;28;20028;-74
2023/04/07 07:51:21;;;;;;;0.20;0.20;;;;;;;;;;5070507;28;20081;-73
2023/04/07 07:53:47;;;;;;;0.25;0.25;;;;;;;;;;5074021;28;20024;-74
2023/04/07 07:56:13;;;;;;;0.28;0.28;;;;;;;;;;5081532;28;20381;-74
2023/04/07 07:58:39;;;;;;;0.35;0.35;;;;;;;;;;5096966;28;20024;-74
2023/04/07 08:01:05;;;;;;;0.10;0.10;;;;;;;;;;5096440;28;20448;-74
2023/04/07 08:03:31;;;;;;;0.20;0.20;;;;;;;;;;5082594;28;20016;-74
2023/04/07 08:05:57;;;;;;;0.10;0.10;;;;;;;;;;5078962;28;20012;-75
2023/04/07 08:08:23;;;;;;;1.77;0.30;;;;;;;;;;5099779;28;20324;-74
2023/04/07 08:10:49;;;;;;;0.20;0.20;;;;;;;;;;5096975;28;20020;-75
2023/04/07 08:13:15;;;;;;;0.10;0.10;;;;;;;;;;5078020;28;20039;-74
2023/04/07 08:15:41;;;;;;;0.20;0.20;;;;;;;;;;5096079;28;20016;-73
2023/04/07 08:18:07;;;;;;;0.22;0.22;;;;;;;;;;5073510;28;20519;-74
2023/04/07 08:20:35;;;;;;;1.08;0.17;;;;;;;;;;5073237;28;20102;-73
2023/04/07 08:23:01;;;;;;;0.50;0.47;;;;;;;;;;5071391;28;20020;-74
2023/04/07 08:25:27;;;;;;;0.22;0.22;;;;;;;;;;5089387;28;20020;-74
2023/04/07 08:27:53;;;;;;;0.10;0.10;;;;;;;;;;5088774;28;20488;-73
2023/04/07 08:30:22;;;;;;;1.48;0.43;;;;;;;;;;5074925;28;20039;-74
2023/04/07 08:32:48;;;;;;;0.82;0.45;;;;;;;;;;5107683;28;20035;-74
2023/04/07 08:35:14;;;;;;;2.15;0.40;;;;;;;;;;5118077;28;20035;-74
2023/04/07 08:37:43;;;;;;;6.03;0.38;;;;;;;;;;5108423;28;20367;-73
2023/04/07 08:40:09;;;;;;;0.30;0.30;;;;;;;;;;5098920;28;20020;-73
2023/04/07 08:42:39;;;;;;;1.65;0.30;;;;;;;;;;5103242;28;20019;-74
2023/04/07 08:45:07;;;;;;;0.30;0.30;;;;;;;;;;5090738;28;20016;-74
2023/04/07 08:47:34;;;;;;;0.20;0.20;;;;;;;;;;5107340;28;20016;-73
2023/04/07 08:50:02;;;;;;;0.20;0.20;;;;;;;;;;5090122;28;20071;-73
2023/04/07 08:52:47;;;;;;;1.02;0.30;;;;;;;;;;5109685;28;20016;-74
2023/04/07 08:55:13;;;;;;;0.10;0.10;;;;;;;;;;5096677;28;20179;-74
2023/04/07 08:57:39;;;;;;;0.20;0.10;;;;;;;;;;5114471;28;20020;-73
2023/04/07 09:00:06;;;;;;;0.75;0.30;;;;;;;;;;5112012;28;20342;-73
2023/04/07 09:02:39;;;;;;;2.45;0.30;;;;;;;;;;5095777;28;20020;-73
2023/04/07 09:05:06;;;;;;;0.15;0.10;;;;;;;;;;5113173;28;20312;-74
2023/04/07 09:07:33;;;;;;;0.10;0.10;;;;;;;;;;5097508;28;20015;-75
2023/04/07 09:10:00;;;;;;;0.90;0.15;;;;;;;;;;5098240;28;20031;-74
2023/04/07 09:12:30;;;;;;;0.20;0.20;;;;;;;;;;5085237;28;20516;-75
2023/04/07 09:14:56;;;;;;;0.10;0.10;;;;;;;;;;5103041;28;20533;-75
2023/04/07 09:17:24;;;;;;;0.30;0.30;;;;;;;;;;5109659;28;20052;-76
2023/04/07 09:19:52;;;;;;;0.17;0.17;;;;;;;;;;5113382;28;20019;-76
2023/04/07 09:22:55;;;;;;;0.10;0.10;;;;;;;;;;5113805;28;20320;-75
2023/04/07 09:25:28;;;;;;;0.43;0.20;;;;;;;;;;5010283;28;20102;-74
2023/04/07 09:28:01;;;;;;;0.10;0.10;;;;;;;;;;5082246;28;20084;-76
2023/04/07 09:30:28;;;;;;;0.17;0.17;;;;;;;;;;5108004;28;20032;-75
2023/04/07 09:32:54;;;;;;;0.10;0.10;;;;;;;;;;5123386;28;20087;-76
2023/04/07 09:35:22;;;;;;;0.50;0.38;;;;;;;;;;5099231;28;20024;-74
2023/04/07 09:38:21;;;;;;;0.68;0.55;;;;;;;;;;5098982;28;20027;-76
2023/04/07 09:40:50;;;;;;;0.10;0.10;;;;;;;;;;5067794;28;20108;-75
2023/04/07 09:43:17;;;;;;;0.10;0.10;;;;;;;;;;5119262;28;20481;-75
2023/04/07 09:45:43;;;;;;;0.10;0.10;;;;;;;;;;5118861;28;20020;-76
2023/04/07 09:48:19;;;;;;;0.10;0.10;;;;;;;;;;5119593;28;20028;-76
2023/04/07 09:50:48;;;;;;;0.10;0.10;;;;;;;;;;5121923;28;20020;-76
2023/04/07 09:53:15;;;;;;;0.60;0.20;;;;;;;;;;5122206;28;20049;-76
2023/04/07 09:55:42;;;;;;;0.20;0.20;;;;;;;;;;5119917;28;20023;-74
2023/04/07 09:58:08;;;;;;;0.10;0.10;;;;;;;;;;5123101;28;20069;-75
2023/04/07 10:00:35;;;;;;;0.10;0.10;;;;;;;;;;5119629;28;20103;-74
2023/04/07 10:03:03;;;;;;;0.20;0.20;;;;;;;;;;5117211;28;20099;-74
2023/04/07 10:05:29;;;;;;;0.10;0.10;;;;;;;;;;5101842;28;20431;-74
2023/04/07 10:07:55;;;;;;;0.17;0.17;;;;;;;;;;5115126;28;20030;-73
2023/04/07 10:10:21;;;;;;;0.10;0.10;;;;;;;;;;5113227;28;20442;-74
2023/04/07 10:12:49;;;;;;;0.40;0.40;;;;;;;;;;5116848;28;20487;-76
2023/04/07 10:15:15;;;;;;;0.10;0.10;;;;;;;;;;5119065;28;20031;-74
2023/04/07 10:17:46;;;;;;;0.10;0.10;;;;;;;;;;5114987;28;20035;-75
2023/04/07 10:20:12;;;;;;;0.40;0.30;;;;;;;;;;5113568;28;20019;-76
2023/04/07 10:22:40;;;;;;;0.43;0.20;;;;;;;;;;5111688;28;20020;-75
2023/04/07 10:25:09;;;;;;;0.10;0.10;;;;;;;;;;5113590;28;20032;-76
2023/04/07 10:27:48;;;;;;;0.65;0.20;;;;;;;;;;5113101;28;20073;-75
2023/04/07 10:30:16;;;;;;;0.47;0.25;;;;;;;;;;5093760;28;20435;-75
2023/04/07 10:32:46;;;;;;;0.73;0.13;;;;;;;;;;5097552;28;20024;-75
2023/04/07 10:35:12;;;;;;;0.03;0.03;;;;;;;;;;5118771;28;20386;-75
2023/04/07 10:37:38;;;;;;;0.32;0.17;;;;;;;;;;5094051;28;20020;-75
2023/04/07 10:40:20;;;;;;;0.20;0.20;;;;;;;;;;5097782;28;20342;-75
2023/04/07 10:42:46;;;;;;;0.22;0.20;;;;;;;;;;5115163;28;20050;-76
2023/04/07 10:45:13;;;;;;;0.80;0.15;;;;;;;;;;5117265;28;20020;-75
2023/04/07 10:47:57;;;;;;;0.13;0.13;;;;;;;;;;5093492;28;20103;-75
2023/04/07 10:50:24;;;;;;;0.17;0.17;;;;;;;;;;5104547;28;20223;-75
2023/04/07 10:53:04;;;;;;;0.20;0.20;;;;;;;;;;5123531;28;20108;-74
2023/04/07 10:55:30;;;;;;;0.20;0.20;;;;;;;;;;5123835;28;20045;-75
2023/04/07 10:58:15;;;;;;;0.20;0.20;;;;;;;;;;5117207;28;20008;-75
2023/04/07 11:00:41;;;;;;;0.10;0.10;;;;;;;;;;5122229;28;20117;-75
2023/04/07 11:03:13;;;;;;;0.20;0.20;;;;;;;;;;5104619;28;20126;-73
2023/04/07 11:05:40;;;;;;;0.10;0.10;;;;;;;;;;5105273;28;20091;-74
2023/04/07 11:08:06;;;;;;;0.20;0.20;;;;;;;;;;5116918;28;20031;-74
2023/04/07 11:10:33;;;;;;;0.30;0.30;;;;;;;;;;5111201;28;20022;-75
2023/04/07 11:13:00;;;;;;;1.73;1.40;;;;;;;;;;5114579;28;20499;-74
2023/04/07 11:15:26;;;;;;;0.32;0.20;;;;;;;;;;5119055;28;20179;-73
2023/04/07 11:18:07;;;;;;;0.10;0.10;;;;;;;;;;5118209;28;20069;-75
2023/04/07 11:20:45;;;;;;;0.20;0.20;;;;;;;;;;5103420;28;20257;-74
2023/04/07 11:23:12;;;;;;;0.30;0.30;;;;;;;;;;5123039;28;20327;-74
2023/04/07 11:25:38;;;;;;;0.10;0.10;;;;;;;;;;5102938;28;20026;-74
2023/04/07 11:28:04;;;;;;;0.38;0.30;;;;;;;;;;5095706;28;20317;-76
2023/04/07 11:30:30;;;;;;;0.52;0.20;;;;;;;;;;5101622;28;20026;-73
2023/04/07 11:32:56;;;;;;;0.10;0.10;;;;;;;;;;5102460;28;20027;-74
2023/04/07 11:35:23;;;;;;;0.10;0.10;;;;;;;;;;5101719;28;20024;-74
2023/04/07 11:37:50;;;;;;;0.20;0.20;;;;;;;;;;5120057;28;20065;-75
2023/04/07 11:40:33;;;;;;;0.20;0.20;;;;;;;;;;5094070;28;20059;-75
2023/04/07 11:42:59;;;;;;;0.30;0.20;;;;;;;;;;5113175;28;20031;-74
2023/04/07 11:45:25;;;;;;;0.30;0.30;;;;;;;;;;5111862;28;20012;-72
2023/04/07 11:47:51;;;;;;;0.20;0.20;;;;;;;;;;5090709;28;20035;-75
2023/04/07 11:50:37;;;;;;;0.25;0.25;;;;;;;;;;5107211;28;20047;-73
2023/04/07 11:53:03;;;;;;;0.30;0.30;;;;;;;;;;5106547;28;20053;-75
2023/04/07 11:55:29;;;;;;;0.55;0.38;;;;;;;;;;5103138;28;20107;-74
2023/04/07 11:57:55;;;;;;;0.40;0.40;;;;;;;;;;5106900;28;20016;-74
2023/04/07 12:00:22;;;;;;;0.50;0.50;;;;;;;;;;5106804;28;20047;-74
2023/04/07 12:02:50;;;;;;;0.40;0.40;;;;;;;;;;5083092;28;20407;-75
2023/04/07 12:05:16;;;;;;;0.65;0.43;;;;;;;;;;5108335;28;20012;-74
2023/04/07 12:07:52;;;;;;;0.70;0.70;;;;;;;;;;5087384;28;20362;-75
2023/04/07 12:10:20;;;;;;;0.65;0.60;;;;;;;;;;5083818;28;20031;-75
2023/04/07 12:12:46;;;;;;;0.30;0.30;;;;;;;;;;5109677;28;20095;-75
2023/04/07 12:15:12;;;;;;;0.32;0.32;;;;;;;;;;5090121;28;20160;-74
2023/04/07 12:17:43;;;;;;;0.20;0.20;;;;;;;;;;5108642;28;20055;-75
2023/04/07 12:20:10;;;;;;;0.22;0.22;;;;;;;;;;5110204;28;20299;-75
2023/04/07 12:22:36;;;;;;;0.60;0.43;;;;;;;;;;5101850;28;20109;-73
2023/04/07 12:25:02;;;;;;;0.30;0.30;;;;;;;;;;5101665;28;20083;-74
2023/04/07 12:27:28;;;;;;;0.20;0.20;;;;;;;;;;5109136;28;20347;-74
2023/04/07 12:29:54;;;;;;;0.43;0.43;;;;;;;;;;5081569;28;20051;-74
2023/04/07 12:32:20;;;;;;;0.57;0.40;;;;;;;;;;5096921;28;20028;-74
2023/04/07 12:34:46;;;;;;;0.40;0.40;;;;;;;;;;5090872;28;20016;-74
2023/04/07 12:37:12;;;;;;;0.57;0.57;;;;;;;;;;5099139;28;20076;-74
2023/04/07 12:39:38;;;;;;;0.43;0.43;;;;;;;;;;5084445;28;20043;-73
2023/04/07 12:42:06;;;;;;;0.50;0.50;;;;;;;;;;5099397;28;20024;-74
2023/04/07 12:44:32;;;;;;;0.50;0.50;;;;;;;;;;5111614;28;20019;-75
2023/04/07 12:46:58;;;;;;;0.32;0.32;;;;;;;;;;5108985;28;20024;-74
2023/04/07 12:49:24;;;;;;;0.40;0.40;;;;;;;;;;5110758;28;20032;-75
2023/04/07 12:51:51;;;;;;;0.32;0.32;;;;;;;;;;5106817;28;20044;-75
2023/04/07 12:54:17;;;;;;;0.35;0.35;;;;;;;;;;5090586;28;20027;-74
2023/04/07 12:56:43;;;;;;;0.70;0.70;;;;;;;;;;5107115;28;20184;-74
2023/04/07 12:59:09;;;;;;;0.73;0.50;;;;;;;;;;5104046;28;20028;-74
2023/04/07 13:01:35;;;;;;;0.60;0.60;;;;;;;;;;5102993;28;20024;-74
2023/04/07 13:04:02;;;;;;;0.68;0.68;;;;;;;;;;5083096;28;20036;-74
2023/04/07 13:06:28;;;;;;;0.32;0.32;;;;;;;;;;5103599;28;20030;-73
2023/04/07 13:08:55;;;;;;;0.63;0.63;;;;;;;;;;5108539;28;20031;-74
2023/04/07 13:11:21;;;;;;;0.30;0.30;;;;;;;;;;5081252;28;20028;-74
2023/04/07 13:13:47;;;;;;;0.40;0.40;;;;;;;;;;5105448;28;20027;-74
2023/04/07 13:16:13;;;;;;;0.77;0.77;;;;;;;;;;5109243;28;20020;-74
2023/04/07 13:18:39;;;;;;;0.35;0.35;;;;;;;;;;5099608;28;20039;-74
2023/04/07 13:21:05;;;;;;;0.50;0.40;;;;;;;;;;5106483;28;20016;-74
2023/04/07 13:23:31;;;;;;;0.40;0.40;;;;;;;;;;5109065;28;20524;-74
2023/04/07 13:25:57;;;;;;;0.43;0.38;;;;;;;;;;5113459;28;20023;-73
2023/04/07 13:28:23;;;;;;;0.32;0.32;;;;;;;;;;5109594;28;20068;-74
2023/04/07 13:30:49;;;;;;;0.98;0.40;;;;;;;;;;5108019;28;20028;-74
2023/04/07 13:33:16;;;;;;;0.57;0.40;;;;;;;;;;5086806;28;20102;-75
2023/04/07 13:35:42;;;;;;;0.52;0.52;;;;;;;;;;5083413;28;20074;-74
2023/04/07 13:38:08;;;;;;;0.30;0.30;;;;;;;;;;5106889;28;20245;-75
2023/04/07 13:40:34;;;;;;;0.40;0.40;;;;;;;;;;5081679;28;20091;-74
2023/04/07 13:43:00;;;;;;;0.30;0.30;;;;;;;;;;5092529;28;20028;-74
2023/04/07 13:45:26;;;;;;;0.88;0.50;;;;;;;;;;5102736;28;20335;-74
2023/04/07 13:47:52;;;;;;;0.57;0.50;;;;;;;;;;5107271;28;20089;-73
2023/04/07 13:50:18;;;;;;;0.50;0.50;;;;;;;;;;5111998;28;20136;-73
2023/04/07 13:52:44;;;;;;;0.60;0.60;;;;;;;;;;5084919;28;20042;-74
2023/04/07 13:55:10;;;;;;;0.50;0.50;;;;;;;;;;5107250;28;20055;-74
2023/04/07 13:57:36;;;;;;;0.50;0.50;;;;;;;;;;5105301;28;20637;-75
2023/04/07 14:00:02;;;;;;;0.93;0.80;;;;;;;;;;5106001;28;20097;-74
2023/04/07 14:02:29;;;;;;;0.40;0.40;;;;;;;;;;5106196;28;20054;-73
2023/04/07 14:04:55;;;;;;;0.40;0.40;;;;;;;;;;5108941;28;20032;-75
2023/04/07 14:07:22;;;;;;;0.43;0.43;;;;;;;;;;5107393;28;20028;-74
2023/04/07 14:09:48;;;;;;;0.95;0.40;;;;;;;;;;5110772;28;20028;-74
2023/04/07 14:12:14;;;;;;;0.30;0.30;;;;;;;;;;5097053;28;20024;-74
2023/04/07 14:14:40;;;;;;;0.82;0.50;;;;;;;;;;5092661;28;20027;-74
2023/04/07 14:17:06;;;;;;;0.30;0.30;;;;;;;;;;5106896;28;20036;-73
2023/04/07 14:19:33;;;;;;;0.50;0.50;;;;;;;;;;5105581;28;20442;-74
2023/04/07 14:21:59;;;;;;;0.20;0.20;;;;;;;;;;5085021;28;20077;-74
2023/04/07 14:24:26;;;;;;;0.70;0.35;;;;;;;;;;5111165;28;20031;-75
2023/04/07 14:26:53;;;;;;;0.32;0.30;;;;;;;;;;5102070;28;20024;-73
2023/04/07 14:29:20;;;;;;;1.45;0.30;;;;;;;;;;5083042;28;20038;-72
2023/04/07 14:31:47;;;;;;;0.40;0.40;;;;;;;;;;5089675;28;20024;-73
2023/04/07 14:34:13;;;;;;;0.35;0.30;;;;;;;;;;5105171;28;20098;-72
2023/04/07 14:36:39;;;;;;;0.50;0.50;;;;;;;;;;5107900;28;20036;-73
2023/04/07 14:39:05;;;;;;;0.47;0.40;;;;;;;;;;5104233;28;20229;-73
2023/04/07 14:41:31;;;;;;;0.22;0.22;;;;;;;;;;5087700;28;20032;-77
2023/04/07 14:43:58;;;;;;;0.30;0.28;;;;;;;;;;5108083;28;20027;-75